createdAt,value
2022-08-04T00:00:07.022Z,99484.77
2022-08-04T00:02:46.298Z,99484.15
2022-08-04T00:05:36.682Z,99482.86
2022-08-04T00:08:12.636Z,99480.73
2022-08-04T00:10:40.259Z,99481.11
2022-08-04T00:13:06.999Z,99480.29
2022-08-04T00:15:34.490Z,99484.77
2022-08-04T00:18:04.527Z,99487.70
2022-08-04T00:20:33.221Z,99488.48
2022-08-04T00:23:01.234Z,99490.36
2022-08-04T00:25:28.368Z,99491.19
2022-08-04T00:27:55.206Z,99489.29
2022-08-04T00:30:22.074Z,99489.34
2022-08-04T00:32:48.778Z,99498.07
2022-08-04T00:35:15.863Z,99492.64
2022-08-04T00:37:46.167Z,99492.23
2022-08-04T00:40:31.650Z,99492.73
2022-08-04T00:43:15.526Z,99494.77
2022-08-04T00:46:16.729Z,99492.38
2022-08-04T00:48:47.346Z,99491.54
2022-08-04T00:51:41.613Z,99491.55
2022-08-04T00:54:12.767Z,99493.50
2022-08-04T00:57:29.982Z,99494.62
2022-08-04T01:00:05.098Z,99499.02
2022-08-04T01:02:59.679Z,99496.54
2022-08-04T01:05:42.778Z,99499.73
2022-08-04T01:08:33.820Z,99501.65
2022-08-04T01:11:23.737Z,99501.16
2022-08-04T01:13:59.783Z,99504.96
2022-08-04T01:16:27.038Z,99507.83
2022-08-04T01:19:06.147Z,99506.23
2022-08-04T01:21:51.594Z,99507.54
2022-08-04T01:24:38.777Z,99511.87
2022-08-04T01:27:09.830Z,99511.45
2022-08-04T01:29:55.650Z,99512.55
2022-08-04T01:32:36.671Z,99510.32
2022-08-04T01:35:46.492Z,99512.98
2022-08-04T01:38:21.874Z,99512.07
2022-08-04T01:40:54.152Z,99516.48
2022-08-04T01:43:21.448Z,99516.25
2022-08-04T01:45:55.495Z,99517.09
2022-08-04T01:48:25.004Z,99514.00
2022-08-04T01:51:07.500Z,99518.77
2022-08-04T01:53:39.772Z,99517.58
2022-08-04T01:56:08.217Z,99512.73
2022-08-04T01:58:36.492Z,99512.98
2022-08-04T02:01:09.007Z,99508.83
2022-08-04T02:04:20.159Z,99509.52
2022-08-04T02:06:46.687Z,99508.34
2022-08-04T02:10:58.213Z,99508.30
2022-08-04T02:13:33.384Z,99504.41
2022-08-04T02:16:05.471Z,99501.35
2022-08-04T02:18:37.501Z,99498.52
2022-08-04T02:21:04.275Z,99499.73
2022-08-04T02:23:38.562Z,99500.55
2022-08-04T02:26:06.947Z,99502.06
2022-08-04T02:28:51.227Z,99498.16
2022-08-04T02:31:24.075Z,99502.95
2022-08-04T02:34:09.600Z,99504.38
2022-08-04T02:36:38.802Z,99502.48
2022-08-04T02:39:07.390Z,99506.41
2022-08-04T02:41:34.351Z,99502.41
2022-08-04T02:44:02.657Z,99501.90
2022-08-04T02:46:30.059Z,99505.02
2022-08-04T02:48:57.366Z,99501.82
2022-08-04T02:51:47.736Z,99502.20
2022-08-04T02:54:15.729Z,99504.36
2022-08-04T02:56:57.526Z,99500.08
2022-08-04T02:59:26.186Z,99497.71
2022-08-04T03:01:58.025Z,99493.34
2022-08-04T03:04:40.439Z,99490.20
2022-08-04T03:07:16.007Z,99490.27
2022-08-04T03:10:15.301Z,99492.87
2022-08-04T03:12:59.947Z,99489.66
2022-08-04T03:15:50.200Z,99492.19
2022-08-04T03:18:16.898Z,99493.59
2022-08-04T03:21:15.702Z,99491.21
2022-08-04T03:23:57.566Z,99492.70
2022-08-04T03:26:27.206Z,99493.45
2022-08-04T03:29:12.662Z,99489.44
2022-08-04T03:31:58.047Z,99490.66
2022-08-04T03:34:37.191Z,99491.27
2022-08-04T03:37:06.733Z,99489.73
2022-08-04T03:40:11.021Z,99486.90
2022-08-04T03:42:59.081Z,99493.70
2022-08-04T03:45:40.944Z,99496.98
2022-08-04T03:48:19.237Z,99496.59
2022-08-04T03:50:45.916Z,99492.34
2022-08-04T03:53:30.452Z,99499.71
2022-08-04T03:56:18.682Z,99499.02
2022-08-04T03:58:48.421Z,99497.80
2022-08-04T04:01:20.914Z,99501.64
2022-08-04T04:03:55.108Z,99506.88
2022-08-04T04:06:40.518Z,99514.91
2022-08-04T04:09:29.345Z,99517.44
2022-08-04T04:12:35.132Z,99515.73
2022-08-04T04:15:29.720Z,99515.08
2022-08-04T04:18:01.990Z,99516.52
2022-08-04T04:20:40.864Z,99517.41
2022-08-04T04:23:25.949Z,99514.98
2022-08-04T04:26:00.411Z,99516.81
2022-08-04T04:28:55.647Z,99523.05
2022-08-04T04:31:53.263Z,99521.98
2022-08-04T04:34:58.794Z,99520.18
2022-08-04T04:37:57.099Z,99520.27
2022-08-04T04:40:48.356Z,99517.13
2022-08-04T04:43:51.560Z,99522.77
2022-08-04T04:46:16.498Z,99523.98
2022-08-04T04:48:51.231Z,99521.64
2022-08-04T04:51:29.191Z,99521.31
2022-08-04T04:54:01.800Z,99520.02
2022-08-04T04:56:29.651Z,99515.79
2022-08-04T04:58:56.971Z,99517.98
2022-08-04T05:01:34.559Z,99518.06
2022-08-04T05:04:16.156Z,99520.60
2022-08-04T05:06:54.569Z,99519.21
2022-08-04T05:09:33.398Z,99523.14
2022-08-04T05:13:20.438Z,99523.06
2022-08-04T05:15:13.839Z,99528.56
2022-08-04T05:17:41.056Z,99530.90
2022-08-04T05:20:10.668Z,99534.77
2022-08-04T05:22:45.654Z,99533.85
2022-08-04T05:25:21.950Z,99534.60
2022-08-04T05:27:56.557Z,99531.74
2022-08-04T05:30:23.421Z,99531.41
2022-08-04T05:32:55.559Z,99532.77
2022-08-04T05:35:50.451Z,99536.88
2022-08-04T05:38:21.670Z,99543.02
2022-08-04T05:40:48.451Z,99547.65
2022-08-04T05:43:15.206Z,99545.73
2022-08-04T05:45:42.012Z,99547.90
2022-08-04T05:48:09.077Z,99550.90
2022-08-04T05:50:35.927Z,99553.88
2022-08-04T05:53:02.716Z,99552.69
2022-08-04T05:55:57.541Z,99559.39
2022-08-04T05:58:17.009Z,99557.60
2022-08-04T06:00:51.600Z,99554.35
2022-08-04T06:03:20.142Z,99552.69
2022-08-04T06:05:46.907Z,99556.96
2022-08-04T06:08:14.221Z,99558.07
2022-08-04T06:10:41.112Z,99559.20
2022-08-04T06:13:10.497Z,99556.02
2022-08-04T06:15:57.344Z,99558.39
2022-08-04T06:18:33.233Z,99556.76
2022-08-04T06:21:16.138Z,99557.40
2022-08-04T06:23:53.764Z,99561.02
2022-08-04T06:26:28.355Z,99560.64
2022-08-04T06:28:55.127Z,99554.46
2022-08-04T06:32:30.732Z,99552.80
2022-08-04T06:34:27.831Z,99551.90
2022-08-04T06:36:54.824Z,99557.49
2022-08-04T06:39:23.113Z,99553.60
2022-08-04T06:42:01.881Z,99554.36
2022-08-04T06:44:38.311Z,99554.08
2022-08-04T06:47:05.291Z,99552.05
2022-08-04T06:49:55.185Z,99556.86
2022-08-04T06:52:21.593Z,99554.44
2022-08-04T06:54:48.906Z,99555.21
2022-08-04T06:57:17.628Z,99553.25
2022-08-04T06:59:44.826Z,99549.98
2022-08-04T07:02:14.364Z,99550.98
2022-08-04T07:04:42.467Z,99546.40
2022-08-04T07:07:09.240Z,99547.16
2022-08-04T07:09:36.001Z,99550.41
2022-08-04T07:12:02.901Z,99553.80
2022-08-04T07:14:30.757Z,99553.81
2022-08-04T07:16:57.530Z,99553.66
2022-08-04T07:19:24.367Z,99554.39
2022-08-04T07:22:16.181Z,99552.98
2022-08-04T07:24:38.365Z,99552.54
2022-08-04T07:27:07.958Z,99547.85
2022-08-04T07:29:38.111Z,99548.41
2022-08-04T07:32:05.491Z,99549.33
2022-08-04T07:34:32.715Z,99549.36
2022-08-04T07:37:01.891Z,99548.45
2022-08-04T07:39:31.485Z,99549.17
2022-08-04T07:42:02.249Z,99553.14
2022-08-04T07:44:33.110Z,99549.23
2022-08-04T07:47:05.816Z,99550.66
2022-08-04T07:49:55.216Z,99554.21
2022-08-04T07:52:19.538Z,99551.61
2022-08-04T07:54:46.357Z,99551.64
2022-08-04T07:57:19.629Z,99554.05
2022-08-04T07:59:59.987Z,99554.58
2022-08-04T08:02:26.748Z,99554.54
2022-08-04T08:04:53.496Z,99554.24
2022-08-04T08:07:20.727Z,99549.41
2022-08-04T08:09:48.140Z,99550.68
2022-08-04T08:12:37.485Z,99551.39
2022-08-04T08:15:01.804Z,99547.08
2022-08-04T08:17:28.584Z,99552.70
2022-08-04T08:19:55.357Z,99556.92
2022-08-04T08:22:22.194Z,99554.79
2022-08-04T08:24:48.915Z,99555.71
2022-08-04T08:27:15.684Z,99556.56
2022-08-04T08:29:42.459Z,99553.79
2022-08-04T08:32:10.465Z,99552.86
2022-08-04T08:34:37.247Z,99550.39
2022-08-04T08:37:21.799Z,99549.34
2022-08-04T08:40:04.755Z,99551.04
2022-08-04T08:44:05.669Z,99545.48
2022-08-04T08:45:58.812Z,99547.55
2022-08-04T08:48:50.508Z,99549.75
2022-08-04T08:51:24.921Z,99549.87
2022-08-04T08:54:13.525Z,99554.05
2022-08-04T08:56:46.160Z,99556.09
2022-08-04T08:59:47.050Z,99557.77
2022-08-04T09:02:29.015Z,99562.41
2022-08-04T09:04:55.933Z,99559.96
2022-08-04T09:07:59.967Z,99554.25
2022-08-04T09:10:46.846Z,99554.81
2022-08-04T09:13:18.169Z,99553.34
2022-08-04T09:16:21.039Z,99558.00
2022-08-04T09:19:00.483Z,99559.48
2022-08-04T09:21:34.184Z,99554.55
2022-08-04T09:24:35.077Z,99550.48
2022-08-04T09:27:16.003Z,99551.46
2022-08-04T09:29:55.339Z,99554.80
2022-08-04T09:32:41.460Z,99552.02
2022-08-04T09:35:26.271Z,99550.78
2022-08-04T09:38:17.089Z,99549.70
2022-08-04T09:40:57.823Z,99548.99
2022-08-04T09:43:59.508Z,99552.61
2022-08-04T09:46:23.399Z,99550.10
2022-08-04T09:49:02.832Z,99554.27
2022-08-04T09:51:57.191Z,99549.83
2022-08-04T09:54:33.831Z,99553.16
2022-08-04T09:57:20.867Z,99552.04
2022-08-04T10:00:09.871Z,99546.36
2022-08-04T10:02:49.024Z,99546.42
2022-08-04T10:05:16.569Z,99545.71
2022-08-04T10:08:15.176Z,99545.52
2022-08-04T10:11:02.170Z,99545.42
2022-08-04T10:14:05.840Z,99542.52
2022-08-04T10:16:41.536Z,99541.98
2022-08-04T10:19:30.028Z,99544.70
2022-08-04T10:22:29.454Z,99537.81
2022-08-04T10:25:01.893Z,99535.52
2022-08-04T10:27:38.651Z,99540.31
2022-08-04T10:30:11.975Z,99543.41
2022-08-04T10:32:49.714Z,99542.84
2022-08-04T10:35:24.190Z,99536.07
2022-08-04T10:38:13.464Z,99537.13
2022-08-04T10:40:48.192Z,99540.73
2022-08-04T10:43:22.606Z,99537.63
2022-08-04T10:45:57.826Z,99535.61
2022-08-04T10:49:04.043Z,99532.80
2022-08-04T10:51:58.251Z,99531.22
2022-08-04T10:54:38.019Z,99530.08
2022-08-04T10:57:05.476Z,99527.27
2022-08-04T10:59:37.266Z,99522.64
2022-08-04T11:02:47.211Z,99519.90
2022-08-04T11:05:50.852Z,99520.08
2022-08-04T11:08:29.644Z,99518.22
2022-08-04T11:11:16.962Z,99519.41
2022-08-04T11:13:47.636Z,99509.74
2022-08-04T11:16:19.699Z,99506.80
2022-08-04T11:19:08.877Z,99507.16
2022-08-04T11:21:37.871Z,99510.17
2022-08-04T11:24:26.279Z,99510.58
2022-08-04T11:27:00.633Z,99513.65
2022-08-04T11:29:45.562Z,99509.32
2022-08-04T11:32:21.040Z,99511.89
2022-08-04T11:34:56.974Z,99514.33
2022-08-04T11:37:28.984Z,99513.07
2022-08-04T11:40:09.478Z,99513.43
2022-08-04T11:42:48.074Z,99505.56
2022-08-04T11:45:20.024Z,99502.86
2022-08-04T11:47:53.672Z,99501.73
2022-08-04T11:50:34.972Z,99500.70
2022-08-04T11:53:01.718Z,99493.71
2022-08-04T11:55:28.596Z,99491.47
2022-08-04T11:57:55.503Z,99491.86
2022-08-04T12:00:22.453Z,99484.75
2022-08-04T12:02:55.155Z,99481.06
2022-08-04T12:05:36.685Z,99481.76
2022-08-04T12:08:22.416Z,99482.92
2022-08-04T12:11:25.206Z,99484.21
2022-08-04T12:14:04.000Z,99481.46
2022-08-04T12:16:43.091Z,99487.39
2022-08-04T12:19:30.902Z,99490.61
2022-08-04T12:22:17.914Z,99497.21
2022-08-04T12:25:08.854Z,99493.33
2022-08-04T12:27:49.871Z,99490.55
2022-08-04T12:30:58.926Z,99484.45
2022-08-04T12:33:18.125Z,99489.95
2022-08-04T12:35:57.489Z,99488.96
2022-08-04T12:38:33.446Z,99478.04
2022-08-04T12:41:03.518Z,99478.44
2022-08-04T12:43:37.848Z,99483.88
2022-08-04T12:46:10.002Z,99483.41
2022-08-04T12:48:37.849Z,99484.69
2022-08-04T12:51:05.401Z,99481.23
2022-08-04T12:53:50.576Z,99480.10
2022-08-04T12:56:24.014Z,99471.99
2022-08-04T12:58:50.740Z,99473.11
2022-08-04T13:02:07.277Z,99479.91
2022-08-04T13:04:15.670Z,99487.73
2022-08-04T13:06:42.547Z,99491.05
2022-08-04T13:09:19.530Z,99495.23
2022-08-04T13:12:06.249Z,99490.94
2022-08-04T13:14:35.636Z,99491.98
2022-08-04T13:17:02.461Z,99496.25
2022-08-04T13:19:29.569Z,99499.95
2022-08-04T13:22:02.681Z,99492.85
2022-08-04T13:24:32.435Z,99493.13
2022-08-04T13:27:03.833Z,99494.02
2022-08-04T13:30:00.042Z,99488.96
2022-08-04T13:32:28.680Z,99488.30
2022-08-04T13:34:56.129Z,99488.63
2022-08-04T13:37:27.564Z,99485.85
2022-08-04T13:39:55.820Z,99483.93
2022-08-04T13:42:23.227Z,99478.86
2022-08-04T13:44:54.088Z,99480.50
2022-08-04T13:47:22.184Z,99481.21
2022-08-04T13:50:11.953Z,99480.07
2022-08-04T13:52:40.834Z,99478.34
2022-08-04T13:55:08.386Z,99479.11
2022-08-04T13:57:37.119Z,99488.55
2022-08-04T14:00:09.273Z,99494.94
2022-08-04T14:03:23.157Z,99489.56
2022-08-04T14:06:13.545Z,99485.31
2022-08-04T14:08:53.997Z,99484.83
2022-08-04T14:12:08.879Z,99487.63
2022-08-04T14:14:22.584Z,99482.67
2022-08-04T14:17:18.013Z,99488.13
2022-08-04T14:19:48.703Z,99488.08
2022-08-04T14:22:28.690Z,99477.39
2022-08-04T14:24:58.545Z,99473.16
2022-08-04T14:29:00.016Z,99466.40
2022-08-04T14:31:21.707Z,99458.24
2022-08-04T14:34:03.910Z,99454.39
2022-08-04T14:37:16.176Z,99455.72
2022-08-04T14:40:18.065Z,99451.32
2022-08-04T14:42:55.712Z,99447.11
2022-08-04T14:45:36.830Z,99449.53
2022-08-04T14:48:08.523Z,99446.42
2022-08-04T14:50:35.377Z,99438.29
2022-08-04T14:53:09.851Z,99440.91
2022-08-04T14:55:37.496Z,99446.85
2022-08-04T14:58:35.157Z,99450.30
2022-08-04T15:00:52.909Z,99456.20
2022-08-04T15:03:20.228Z,99460.02
2022-08-04T15:06:02.554Z,99460.55
2022-08-04T15:08:32.480Z,99464.98
2022-08-04T15:11:03.418Z,99466.56
2022-08-04T15:13:33.622Z,99470.92
2022-08-04T15:16:06.418Z,99470.51
2022-08-04T15:18:36.851Z,99474.05
2022-08-04T15:21:04.324Z,99474.45
2022-08-04T15:23:38.735Z,99473.21
2022-08-04T15:26:06.267Z,99473.15
2022-08-04T15:28:33.251Z,99470.48
2022-08-04T15:31:01.207Z,99473.02
2022-08-04T15:33:28.948Z,99471.57
2022-08-04T15:36:15.851Z,99465.59
2022-08-04T15:38:57.833Z,99463.00
2022-08-04T15:41:56.823Z,99465.73
2022-08-04T15:44:29.921Z,99466.80
2022-08-04T15:47:02.805Z,99473.00
2022-08-04T15:49:29.615Z,99475.15
2022-08-04T15:52:01.611Z,99475.24
2022-08-04T15:54:32.704Z,99470.41
2022-08-04T15:57:02.412Z,99467.41
2022-08-04T16:00:00.270Z,99469.74
2022-08-04T16:02:30.296Z,99471.07
2022-08-04T16:05:18.506Z,99476.67
2022-08-04T16:07:57.340Z,99474.94
2022-08-04T16:10:30.322Z,99477.13
2022-08-04T16:13:04.335Z,99478.97
2022-08-04T16:15:41.250Z,99479.64
2022-08-04T16:18:13.970Z,99480.80
2022-08-04T16:20:57.323Z,99489.59
2022-08-04T16:23:53.487Z,99490.53
2022-08-04T16:26:36.622Z,99492.11
2022-08-04T16:29:34.498Z,99494.90
2022-08-04T16:32:04.654Z,99495.16
2022-08-04T16:34:48.331Z,99491.86
2022-08-04T16:37:18.120Z,99488.16
2022-08-04T16:39:50.315Z,99493.06
2022-08-04T16:42:30.764Z,99490.54
2022-08-04T16:45:12.019Z,99488.36
2022-08-04T16:47:48.095Z,99488.86
2022-08-04T16:50:19.307Z,99484.14
2022-08-04T16:52:51.009Z,99487.08
2022-08-04T16:55:28.342Z,99490.08
2022-08-04T16:57:57.276Z,99490.41
2022-08-04T17:00:37.291Z,99489.73
2022-08-04T17:03:09.655Z,99487.64
2022-08-04T17:05:38.465Z,99491.17
2022-08-04T17:08:28.680Z,99495.12
2022-08-04T17:10:53.681Z,99496.23
2022-08-04T17:14:02.377Z,99495.12
2022-08-04T17:16:13.583Z,99492.45
2022-08-04T17:18:47.185Z,99488.05
2022-08-04T17:21:16.503Z,99490.04
2022-08-04T17:24:15.893Z,99493.88
2022-08-04T17:26:40.008Z,99495.19
2022-08-04T17:31:55.936Z,99499.16
2022-08-04T17:34:26.652Z,99500.81
2022-08-04T17:36:53.483Z,99496.72
2022-08-04T17:39:23.029Z,99493.52
2022-08-04T17:41:55.587Z,99496.05
2022-08-04T17:44:35.949Z,99498.75
2022-08-04T17:47:18.390Z,99493.48
2022-08-04T17:49:52.524Z,99499.34
2022-08-04T17:52:41.270Z,99492.95
2022-08-04T17:55:16.216Z,99492.93
2022-08-04T17:57:52.412Z,99489.67
2022-08-04T18:00:22.609Z,99498.73
2022-08-04T18:02:53.171Z,99498.05
2022-08-04T18:05:50.315Z,99499.31
2022-08-04T18:08:40.280Z,99498.92
2022-08-04T18:11:05.015Z,99502.18
2022-08-04T18:13:43.028Z,99504.55
2022-08-04T18:16:22.363Z,99507.27
2022-08-04T18:19:12.079Z,99502.79
2022-08-04T18:21:46.444Z,99499.49
2022-08-04T18:24:34.004Z,99500.14
2022-08-04T18:27:06.280Z,99503.73
2022-08-04T18:29:38.979Z,99504.46
2022-08-04T18:32:09.094Z,99504.41
2022-08-04T18:34:40.861Z,99504.11
2022-08-04T18:38:05.897Z,99505.80
2022-08-04T18:40:26.381Z,99507.46
2022-08-04T18:42:56.652Z,99506.71
2022-08-04T18:45:24.257Z,99503.88
2022-08-04T18:48:02.524Z,99504.30
2022-08-04T18:51:11.323Z,99501.79
2022-08-04T18:53:21.796Z,99497.68
2022-08-04T18:55:57.258Z,99495.06
2022-08-04T18:58:34.085Z,99493.59
2022-08-04T19:01:01.390Z,99493.74
2022-08-04T19:03:30.595Z,99493.94
2022-08-04T19:06:02.423Z,99493.58
2022-08-04T19:08:33.452Z,99497.39
2022-08-04T19:11:16.723Z,99494.67
2022-08-04T19:13:54.633Z,99498.19
2022-08-04T19:16:30.520Z,99496.17
2022-08-04T19:19:02.395Z,99491.16
2022-08-04T19:21:59.705Z,99492.53
2022-08-04T19:24:31.478Z,99490.76
2022-08-04T19:27:06.367Z,99490.00
2022-08-04T19:29:38.043Z,99489.99
2022-08-04T19:32:15.001Z,99492.23
2022-08-04T19:34:45.973Z,99487.02
2022-08-04T19:37:56.828Z,99490.14
2022-08-04T19:40:05.894Z,99491.22
2022-08-04T19:42:33.390Z,99486.59
2022-08-04T19:45:02.546Z,99478.35
2022-08-04T19:48:22.108Z,99477.73
2022-08-04T19:50:16.571Z,99473.90
2022-08-04T19:52:45.834Z,99469.47
2022-08-04T19:55:22.405Z,99459.64
2022-08-04T19:57:50.822Z,99456.48
2022-08-04T20:00:33.284Z,99454.77
2022-08-04T20:03:09.915Z,99450.84
2022-08-04T20:05:57.496Z,99455.78
2022-08-04T20:08:29.730Z,99460.47
2022-08-04T20:10:57.829Z,99465.45
2022-08-04T20:13:38.757Z,99468.24
2022-08-04T20:16:29.374Z,99470.30
2022-08-04T20:19:04.157Z,99470.71
2022-08-04T20:21:54.314Z,99468.27
2022-08-04T20:24:39.236Z,99474.58
2022-08-04T20:27:51.671Z,99472.27
2022-08-04T20:30:10.895Z,99466.58
2022-08-04T20:32:52.868Z,99468.54
2022-08-04T20:35:25.917Z,99470.38
2022-08-04T20:37:54.968Z,99473.46
2022-08-04T20:40:24.097Z,99473.55
2022-08-04T20:42:51.238Z,99471.14
2022-08-04T20:45:18.675Z,99468.60
2022-08-04T20:47:53.395Z,99472.23
2022-08-04T20:50:29.814Z,99476.09
2022-08-04T20:53:00.706Z,99480.64
2022-08-04T20:55:30.804Z,99476.16
2022-08-04T20:58:02.635Z,99470.10
2022-08-04T21:00:30.516Z,99473.71
2022-08-04T21:03:00.555Z,99473.12
2022-08-04T21:05:27.852Z,99472.95
2022-08-04T21:07:57.243Z,99474.77
2022-08-04T21:10:40.004Z,99479.74
2022-08-04T21:13:15.178Z,99476.41
2022-08-04T21:15:58.498Z,99478.02
2022-08-04T21:18:29.256Z,99479.08
2022-08-04T21:20:58.641Z,99474.48
2022-08-04T21:23:25.509Z,99471.68
2022-08-04T21:26:03.234Z,99475.84
2022-08-04T21:28:33.288Z,99474.02
2022-08-04T21:31:02.561Z,99477.55
2022-08-04T21:36:27.482Z,99474.75
2022-08-04T21:38:54.574Z,99477.63
2022-08-04T21:41:24.763Z,99476.27
2022-08-04T21:43:54.138Z,99473.95
2022-08-04T21:46:21.039Z,99472.73
2022-08-04T21:48:48.672Z,99476.42
2022-08-04T21:51:59.197Z,99481.00
2022-08-04T21:54:11.669Z,99482.86
2022-08-04T21:56:42.219Z,99486.42
2022-08-04T21:59:18.626Z,99488.04
2022-08-04T22:01:55.491Z,99486.02
2022-08-04T22:04:22.362Z,99484.71
2022-08-04T22:06:52.343Z,99485.36
2022-08-04T22:09:21.806Z,99477.83
2022-08-04T22:11:51.073Z,99473.55
2022-08-04T22:14:27.494Z,99476.45
2022-08-04T22:17:01.207Z,99469.60
2022-08-04T22:19:50.134Z,99472.46
2022-08-04T22:22:25.342Z,99472.64
2022-08-04T22:24:58.915Z,99470.41
2022-08-04T22:27:47.260Z,99471.02
2022-08-04T22:30:17.092Z,99468.79
2022-08-04T22:32:47.941Z,99470.38
2022-08-04T22:35:42.838Z,99466.27
2022-08-04T22:38:06.714Z,99460.98
2022-08-04T22:40:38.345Z,99455.00
2022-08-04T22:43:31.189Z,99453.98
2022-08-04T22:45:51.950Z,99461.89
2022-08-04T22:48:18.794Z,99461.28
2022-08-04T22:50:45.560Z,99461.16
2022-08-04T22:53:12.864Z,99463.14
2022-08-04T22:56:06.493Z,99454.29
2022-08-04T22:58:32.265Z,99448.48
2022-08-04T23:00:59.354Z,99445.98
2022-08-04T23:03:37.314Z,99453.02
2022-08-04T23:06:11.604Z,99462.02
2022-08-04T23:08:46.461Z,99467.21
2022-08-04T23:11:13.677Z,99465.02
2022-08-04T23:13:41.632Z,99467.95
2022-08-04T23:16:09.926Z,99470.08
2022-08-04T23:18:41.772Z,99479.05
2022-08-04T23:21:09.845Z,99474.11
2022-08-04T23:23:45.182Z,99476.89
2022-08-04T23:26:27.915Z,99476.16
2022-08-04T23:28:58.502Z,99477.92
2022-08-04T23:31:38.918Z,99474.23
2022-08-04T23:34:08.561Z,99473.02
2022-08-04T23:36:35.491Z,99477.89
2022-08-04T23:39:05.651Z,99483.64
2022-08-04T23:41:53.715Z,99480.16
2022-08-04T23:44:25.477Z,99476.90
2022-08-04T23:47:03.909Z,99480.23
2022-08-04T23:49:40.761Z,99480.89
2022-08-04T23:52:23.224Z,99482.77
2022-08-04T23:54:58.392Z,99481.25
2022-08-04T23:57:31.508Z,99479.27
